TAF and METAR

Could not understand the following METAR

YTEF 230900Z AUTO 11007KT 9999 // NCD 32/05 Q1018
No TAF available for Telfer Airport
Telfer Airport in Australia at 296m

Latest 5 airports